Time;durP1;ratioP1;P1;durP2;ratioP2;P2;SDS_P1;SDS_P2;PMS_P1;PMS_P2;Temp;Humidity;BMP_temperature;BMP_pressure;BME280_temperature;BME280_humidity;BME280_pressure;Samples;Min_cycle;Max_cycle;Signal;HPM_P1;HPM_P2
2022/10/13 00:02:14;;;;;;;18.10;9.90;;;10.20;99.90;;;;;;5081322;28;20333;-78
2022/10/13 00:04:39;;;;;;;21.88;10.20;;;10.30;99.90;;;;;;5082497;28;20142;-77
2022/10/13 00:07:05;;;;;;;14.18;10.75;;;10.30;99.90;;;;;;5081200;28;20032;-77
2022/10/13 00:09:31;;;;;;;17.23;9.13;;;10.20;99.90;;;;;;5061406;28;20032;-77
2022/10/13 00:11:57;;;;;;;22.40;11.23;;;10.20;99.90;;;;;;5082264;28;20032;-78
2022/10/13 00:14:23;;;;;;;18.20;10.23;;;10.20;99.90;;;;;;5081587;28;20047;-78
2022/10/13 00:16:49;;;;;;;22.83;11.48;;;10.30;99.90;;;;;;5065836;28;20218;-78
2022/10/13 00:19:14;;;;;;;17.20;10.15;;;10.20;99.90;;;;;;5089146;28;20021;-79
2022/10/13 00:21:40;;;;;;;18.63;10.52;;;10.20;99.90;;;;;;5077971;28;20032;-78
2022/10/13 00:24:11;;;;;;;18.75;11.15;;;10.20;99.90;;;;;;5082559;28;20042;-78
2022/10/13 00:26:37;;;;;;;17.58;10.38;;;10.10;99.90;;;;;;5098521;28;20448;-77
2022/10/13 00:29:03;;;;;;;21.15;10.23;;;10.20;99.90;;;;;;5102183;28;20105;-77
2022/10/13 00:31:30;;;;;;;18.63;10.65;;;10.30;99.90;;;;;;5084671;28;20039;-76
2022/10/13 00:33:58;;;;;;;21.10;11.60;;;10.20;99.90;;;;;;5080922;28;20026;-78
2022/10/13 00:36:24;;;;;;;20.27;9.95;;;10.20;99.90;;;;;;5081804;28;20052;-77
2022/10/13 00:38:51;;;;;;;16.42;10.20;;;10.20;99.90;;;;;;5087490;28;20062;-78
2022/10/13 00:41:17;;;;;;;17.98;9.52;;;10.20;99.90;;;;;;5085631;28;20035;-77
2022/10/13 00:44:04;;;;;;;14.88;10.43;;;10.20;99.90;;;;;;5085186;28;20032;-78
2022/10/13 00:46:35;;;;;;;22.92;10.80;;;10.30;99.90;;;;;;5102155;28;20051;-78
2022/10/13 00:49:09;;;;;;;19.77;10.95;;;10.20;99.90;;;;;;5085782;28;20384;-78
2022/10/13 00:51:43;;;;;;;18.98;11.10;;;10.30;99.90;;;;;;5100067;28;20036;-77
2022/10/13 00:54:19;;;;;;;17.65;9.98;;;10.30;99.90;;;;;;5102892;28;20269;-78
2022/10/13 00:56:45;;;;;;;18.60;10.57;;;10.20;99.90;;;;;;5111508;28;20246;-76
2022/10/13 00:59:21;;;;;;;17.42;10.40;;;10.30;99.90;;;;;;5067660;28;20337;-78
2022/10/13 01:01:48;;;;;;;22.02;10.88;;;10.30;99.90;;;;;;5083743;28;20051;-80
2022/10/13 01:04:16;;;;;;;20.95;12.00;;;10.20;99.90;;;;;;5111043;28;20081;-77
2022/10/13 01:06:42;;;;;;;17.58;11.27;;;10.20;99.90;;;;;;5072693;28;20064;-78
2022/10/13 01:09:07;;;;;;;18.15;11.48;;;10.30;99.90;;;;;;5068656;28;20092;-78
2022/10/13 01:12:18;;;;;;;17.65;11.88;;;10.20;99.90;;;;;;5085921;28;20067;-78
2022/10/13 01:15:12;;;;;;;18.65;11.13;;;10.30;99.90;;;;;;5095865;28;20211;-78
2022/10/13 01:18:02;;;;;;;19.23;11.45;;;10.20;99.90;;;;;;5085690;28;20227;-77
2022/10/13 01:20:46;;;;;;;22.23;12.05;;;10.20;99.90;;;;;;5100881;28;20035;-77
2022/10/13 01:23:37;;;;;;;20.70;11.38;;;10.10;99.90;;;;;;5093432;28;20028;-77
2022/10/13 01:26:11;;;;;;;20.00;11.20;;;10.20;99.90;;;;;;5095628;28;20234;-78
2022/10/13 01:29:15;;;;;;;19.33;11.27;;;10.20;99.90;;;;;;5092149;28;20042;-78
2022/10/13 01:31:58;;;;;;;21.33;12.45;;;10.30;99.90;;;;;;5111957;28;20037;-78
2022/10/13 01:34:35;;;;;;;21.27;12.25;;;10.30;99.90;;;;;;5096776;28;20270;-77
2022/10/13 01:37:11;;;;;;;20.45;12.18;;;10.20;99.90;;;;;;5086547;28;20043;-78
2022/10/13 01:39:52;;;;;;;20.52;12.88;;;10.10;99.90;;;;;;5098202;28;20048;-77
2022/10/13 01:42:26;;;;;;;21.23;11.80;;;10.20;99.90;;;;;;5080021;28;20200;-77
2022/10/13 01:44:58;;;;;;;25.55;12.32;;;10.20;99.90;;;;;;5102842;28;20032;-77
2022/10/13 01:47:26;;;;;;;19.90;12.18;;;10.10;99.90;;;;;;5085413;28;20040;-77
2022/10/13 01:49:53;;;;;;;21.35;11.93;;;10.10;99.90;;;;;;5084552;28;20044;-78
2022/10/13 01:52:21;;;;;;;20.88;12.32;;;10.20;99.90;;;;;;5084116;28;20043;-77
2022/10/13 01:54:50;;;;;;;20.25;12.35;;;10.20;99.90;;;;;;5092812;28;20036;-78
2022/10/13 01:57:36;;;;;;;14.40;10.35;;;10.20;99.90;;;;;;5084062;28;20036;-78
2022/10/13 02:00:11;;;;;;;22.50;12.95;;;10.30;99.90;;;;;;5100766;28;20020;-79
2022/10/13 02:02:43;;;;;;;;;;;10.30;99.90;;;;;;5088444;28;20295;-76
2022/10/13 02:05:18;;;;;;;25.48;12.95;;;10.20;99.90;;;;;;5090740;28;19926;-79
2022/10/13 02:08:01;;;;;;;20.75;12.07;;;10.20;99.90;;;;;;5096329;28;20245;-78
2022/10/13 02:10:34;;;;;;;22.65;12.48;;;10.40;99.90;;;;;;5093741;28;20221;-79
2022/10/13 02:13:05;;;;;;;20.95;11.90;;;10.20;99.90;;;;;;5100969;28;20028;-80
2022/10/13 02:15:41;;;;;;;18.75;11.85;;;10.20;99.90;;;;;;5089281;28;20218;-78
2022/10/13 02:18:12;;;;;;;22.42;12.38;;;10.30;99.90;;;;;;5080695;28;20246;-79
2022/10/13 02:20:43;;;;;;;22.88;12.20;;;10.20;99.90;;;;;;5100503;28;20124;-78
2022/10/13 02:23:15;;;;;;;22.63;13.38;;;10.20;99.90;;;;;;5078560;28;20020;-78
2022/10/13 02:25:42;;;;;;;18.15;11.50;;;10.30;99.90;;;;;;5099177;28;20032;-78
2022/10/13 02:28:08;;;;;;;19.52;11.40;;;10.20;99.90;;;;;;5100305;28;20040;-78
2022/10/13 02:30:34;;;;;;;20.05;12.32;;;10.90;99.90;;;;;;5088035;28;20039;-79
2022/10/13 02:33:01;;;;;;;21.60;12.98;;;10.30;99.90;;;;;;5088955;28;20036;-80
2022/10/13 02:35:27;;;;;;;24.00;12.90;;;10.10;99.90;;;;;;5103681;28;20056;-78
2022/10/13 02:37:53;;;;;;;18.77;12.30;;;10.20;99.90;;;;;;5101146;28;20044;-79
2022/10/13 02:40:18;;;;;;;20.35;11.90;;;10.10;99.90;;;;;;5084172;28;20272;-79
2022/10/13 02:42:44;;;;;;;24.98;13.00;;;10.10;99.90;;;;;;5100300;28;20077;-78
2022/10/13 02:45:10;;;;;;;20.75;12.25;;;10.20;99.90;;;;;;5089870;28;20028;-79
2022/10/13 02:47:37;;;;;;;22.42;11.40;;;9.40;99.90;;;;;;5084843;28;20099;-78
2022/10/13 02:50:04;;;;;;;20.92;12.20;;;10.10;99.90;;;;;;5067178;28;20154;-78
2022/10/13 02:52:30;;;;;;;19.25;12.23;;;10.10;99.90;;;;;;5100196;28;20032;-78
2022/10/13 02:54:55;;;;;;;19.95;12.85;;;10.20;99.90;;;;;;5091564;28;20099;-78
2022/10/13 02:57:21;;;;;;;22.90;13.85;;;10.10;99.90;;;;;;5100563;28;20036;-78
2022/10/13 02:59:52;;;;;;;21.30;12.77;;;10.20;99.90;;;;;;5102665;28;20253;-78
2022/10/13 03:02:18;;;;;;;21.35;12.75;;;10.20;99.90;;;;;;5080267;28;20017;-78
2022/10/13 03:04:44;;;;;;;20.00;13.07;;;10.10;99.90;;;;;;5070615;28;20104;-79
2022/10/13 03:07:10;;;;;;;20.00;12.23;;;10.10;99.90;;;;;;5080107;28;20049;-79
2022/10/13 03:09:35;;;;;;;22.15;13.25;;;10.20;99.90;;;;;;5068292;28;20070;-79
2022/10/13 03:12:01;;;;;;;21.02;13.85;;;10.30;99.90;;;;;;5088751;28;20058;-79
2022/10/13 03:14:27;;;;;;;25.17;13.93;;;10.20;99.90;;;;;;5048478;28;20056;-78
2022/10/13 03:16:52;;;;;;;20.08;12.40;;;10.20;99.90;;;;;;5051404;28;20099;-77
2022/10/13 03:19:18;;;;;;;22.15;13.45;;;10.20;99.90;;;;;;5083319;28;20043;-80
2022/10/13 03:21:44;;;;;;;23.10;14.27;;;10.20;99.90;;;;;;5083631;28;20036;-78
2022/10/13 03:24:09;;;;;;;20.02;12.95;;;10.30;99.90;;;;;;5111581;28;20202;-79
2022/10/13 03:26:35;;;;;;;24.38;12.77;;;10.20;99.90;;;;;;5084386;28;20101;-79
2022/10/13 03:29:02;;;;;;;20.98;12.70;;;10.30;99.90;;;;;;5076039;28;20051;-79
2022/10/13 03:31:28;;;;;;;20.27;12.52;;;10.40;99.90;;;;;;5084840;28;20028;-80
2022/10/13 03:33:53;;;;;;;18.88;12.02;;;10.30;99.90;;;;;;5065844;28;20043;-79
2022/10/13 03:36:19;;;;;;;19.58;11.18;;;10.40;99.90;;;;;;5072621;28;20079;-79
2022/10/13 03:38:45;;;;;;;18.95;11.88;;;10.20;99.90;;;;;;5067002;28;20036;-79
2022/10/13 03:41:13;;;;;;;17.77;12.48;;;10.30;99.90;;;;;;5066345;28;20024;-80
2022/10/13 03:43:40;;;;;;;22.52;13.73;;;10.40;99.90;;;;;;5100813;28;20211;-81
2022/10/13 03:46:16;;;;;;;22.98;13.60;;;10.40;99.90;;;;;;5092444;28;20050;-79
2022/10/13 03:48:42;;;;;;;23.05;13.65;;;10.30;99.90;;;;;;5083053;28;20040;-81
2022/10/13 03:51:19;;;;;;;21.75;13.90;;;10.40;99.90;;;;;;5077422;28;20111;-81
2022/10/13 03:53:46;;;;;;;21.95;13.57;;;10.30;99.90;;;;;;5085340;28;20213;-78
2022/10/13 03:56:15;;;;;;;22.48;14.13;;;10.30;99.90;;;;;;5066116;28;20101;-78
2022/10/13 03:58:41;;;;;;;28.30;14.43;;;10.40;99.90;;;;;;5082750;28;20036;-78
2022/10/13 04:01:07;;;;;;;22.58;13.48;;;10.50;99.90;;;;;;5089972;28;20031;-81
2022/10/13 04:06:30;;;;;;;26.42;14.50;;;12.10;99.90;;;;;;5063191;28;20032;-78
2022/10/13 04:08:56;;;;;;;23.98;13.57;;;9.20;99.90;;;;;;5052405;28;20044;-78
2022/10/13 04:11:22;;;;;;;24.52;13.63;;;10.30;99.90;;;;;;5033838;28;20036;-80
2022/10/13 04:13:47;;;;;;;23.73;13.80;;;10.40;99.90;;;;;;5031959;28;20259;-77
2022/10/13 04:16:25;;;;;;;29.27;15.82;;;10.40;99.90;;;;;;5044679;28;20104;-78
2022/10/13 04:18:53;;;;;;;22.15;15.75;;;10.40;99.90;;;;;;5042184;28;20031;-79
2022/10/13 04:21:20;;;;;;;24.48;14.65;;;10.50;99.90;;;;;;5039302;28;20053;-77
2022/10/13 04:23:45;;;;;;;19.63;14.02;;;10.50;99.90;;;;;;5041877;28;20029;-76
2022/10/13 04:26:19;;;;;;;21.80;14.35;;;10.40;99.90;;;;;;5072743;28;20246;-78
2022/10/13 04:28:46;;;;;;;27.92;15.95;;;10.50;99.90;;;;;;5036458;28;20037;-79
2022/10/13 04:31:11;;;;;;;24.42;13.77;;;10.40;99.90;;;;;;5029419;28;20078;-76
2022/10/13 04:33:37;;;;;;;23.73;14.82;;;10.40;99.90;;;;;;5036275;28;20040;-78
2022/10/13 04:36:09;;;;;;;19.73;14.35;;;10.50;99.90;;;;;;5035243;28;20116;-77
2022/10/13 04:38:35;;;;;;;22.90;15.10;;;10.40;99.90;;;;;;5099297;28;20195;-79
2022/10/13 04:41:05;;;;;;;22.80;13.90;;;10.40;99.90;;;;;;5084841;28;20076;-78
2022/10/13 04:43:31;;;;;;;28.92;15.63;;;10.40;99.90;;;;;;5069540;28;20184;-78
2022/10/13 04:46:06;;;;;;;28.42;17.75;;;10.30;99.90;;;;;;5102730;28;20028;-78
2022/10/13 04:48:32;;;;;;;28.17;16.55;;;10.30;99.90;;;;;;5088196;28;20032;-77
2022/10/13 04:51:12;;;;;;;26.90;16.40;;;10.40;99.90;;;;;;5087373;28;20037;-75
2022/10/13 04:53:39;;;;;;;23.13;16.15;;;10.30;99.90;;;;;;5107895;28;20043;-76
2022/10/13 04:56:08;;;;;;;24.40;15.95;;;10.50;99.90;;;;;;5086122;28;20036;-77
2022/10/13 04:58:35;;;;;;;26.58;16.38;;;10.50;99.90;;;;;;5107951;28;20028;-77
2022/10/13 05:01:02;;;;;;;24.27;15.88;;;10.60;99.90;;;;;;5071520;28;20095;-77
2022/10/13 05:03:28;;;;;;;26.90;17.13;;;10.30;99.90;;;;;;5086555;28;20032;-78
2022/10/13 05:05:54;;;;;;;29.20;17.70;;;10.30;99.90;;;;;;5081792;28;20255;-76
2022/10/13 05:08:20;;;;;;;30.45;17.42;;;10.30;99.90;;;;;;5085868;28;20063;-79
2022/10/13 05:11:00;;;;;;;28.70;17.85;;;10.50;99.90;;;;;;5069150;28;20028;-76
2022/10/13 05:13:29;;;;;;;30.55;16.65;;;10.70;99.90;;;;;;5083040;28;20031;-76
2022/10/13 05:15:55;;;;;;;25.83;16.15;;;10.60;99.90;;;;;;5102831;28;20384;-77
2022/10/13 05:18:21;;;;;;;26.98;16.88;;;10.40;99.90;;;;;;5109167;28;20047;-77
2022/10/13 05:20:47;;;;;;;26.90;16.55;;;10.40;99.90;;;;;;5074653;28;20031;-77
2022/10/13 05:23:13;;;;;;;29.00;16.63;;;10.40;99.90;;;;;;5082404;28;20048;-76
2022/10/13 05:25:39;;;;;;;24.98;16.95;;;10.50;99.90;;;;;;5098898;28;20036;-77
2022/10/13 05:28:06;;;;;;;28.75;16.70;;;10.70;99.90;;;;;;5072481;28;20040;-77
2022/10/13 05:30:32;;;;;;;23.58;15.73;;;10.40;99.90;;;;;;5080690;28;20027;-77
2022/10/13 05:32:58;;;;;;;33.63;18.25;;;10.80;99.90;;;;;;5083293;28;20040;-76
2022/10/13 05:35:25;;;;;;;28.20;17.73;;;10.50;99.90;;;;;;5104037;28;20089;-77
2022/10/13 05:37:54;;;;;;;29.70;17.55;;;10.40;99.90;;;;;;5068383;28;20055;-77
2022/10/13 05:40:22;;;;;;;26.45;16.83;;;10.80;99.90;;;;;;5084454;28;20036;-77
2022/10/13 05:42:52;;;;;;;30.15;18.00;;;10.60;99.90;;;;;;5092270;28;20032;-77
2022/10/13 05:45:20;;;;;;;32.15;18.55;;;10.50;99.90;;;;;;5081188;28;20076;-77
2022/10/13 05:47:46;;;;;;;27.95;18.00;;;10.50;99.90;;;;;;5067793;28;20032;-77
2022/10/13 05:50:11;;;;;;;26.73;17.85;;;10.90;99.90;;;;;;5087161;28;20306;-77
2022/10/13 05:52:38;;;;;;;34.13;17.80;;;11.10;99.90;;;;;;5084462;28;20028;-77
2022/10/13 05:55:06;;;;;;;35.88;19.90;;;10.60;99.90;;;;;;5085403;28;20482;-77
2022/10/13 05:57:40;;;;;;;25.95;16.90;;;10.80;99.90;;;;;;5083719;28;20688;-76
2022/10/13 06:00:13;;;;;;;26.92;17.65;;;10.50;99.90;;;;;;5081424;28;20047;-76
2022/10/13 06:02:58;;;;;;;31.25;18.08;;;10.50;99.90;;;;;;5089314;28;20072;-77
2022/10/13 06:05:26;;;;;;;38.70;21.23;;;10.70;99.90;;;;;;5100205;28;20326;-77
2022/10/13 06:07:53;;;;;;;30.77;20.02;;;10.90;99.90;;;;;;5099703;28;20028;-76
2022/10/13 06:10:19;;;;;;;30.13;19.20;;;10.50;99.90;;;;;;5106215;28;20329;-77
2022/10/13 06:12:45;;;;;;;28.17;18.73;;;10.60;99.90;;;;;;5071839;28;20322;-77
2022/10/13 06:15:11;;;;;;;31.33;18.42;;;10.90;99.90;;;;;;5096243;28;20054;-77
2022/10/13 06:17:38;;;;;;;27.17;18.92;;;10.80;99.90;;;;;;5086866;28;20028;-77
2022/10/13 06:20:05;;;;;;;33.30;20.35;;;11.00;99.90;;;;;;5089917;28;20094;-76
2022/10/13 06:22:33;;;;;;;26.45;18.25;;;11.00;99.90;;;;;;5099699;28;20054;-76
2022/10/13 06:24:59;;;;;;;27.38;16.38;;;11.10;99.90;;;;;;5064010;28;20029;-77
2022/10/13 06:27:24;;;;;;;30.27;19.20;;;11.10;99.90;;;;;;5085959;28;20347;-77
2022/10/13 06:29:50;;;;;;;35.33;21.70;;;11.10;99.90;;;;;;5060941;28;20377;-78
2022/10/13 06:32:16;;;;;;;40.65;24.10;;;10.80;99.90;;;;;;5100729;28;20099;-77
2022/10/13 06:34:42;;;;;;;29.00;18.80;;;11.00;99.90;;;;;;5098458;28;20223;-78
2022/10/13 06:37:08;;;;;;;29.15;20.08;;;11.20;99.90;;;;;;5088226;28;20036;-78
2022/10/13 06:39:34;;;;;;;32.15;19.75;;;11.10;99.90;;;;;;5089808;28;20113;-68
2022/10/13 06:42:00;;;;;;;37.42;22.17;;;10.90;99.90;;;;;;5085022;28;20027;-79
2022/10/13 06:44:26;;;;;;;34.13;19.75;;;11.40;99.90;;;;;;5085197;28;20385;-79
2022/10/13 06:46:51;;;;;;;29.60;19.42;;;11.30;99.90;;;;;;5067919;28;20036;-79
2022/10/13 06:49:18;;;;;;;31.20;20.23;;;11.50;99.90;;;;;;5084748;28;20052;-77
2022/10/13 06:51:46;;;;;;;36.10;21.40;;;11.10;99.90;;;;;;5067883;28;20040;-78
2022/10/13 06:54:12;;;;;;;38.22;22.90;;;11.20;99.90;;;;;;5082820;28;20031;-79
2022/10/13 06:56:43;;;;;;;39.22;21.83;;;11.10;99.90;;;;;;5084817;28;20043;-78
2022/10/13 06:59:09;;;;;;;37.15;22.15;;;11.60;99.90;;;;;;5101344;28;20027;-78
2022/10/13 07:01:35;;;;;;;32.95;21.65;;;11.50;99.90;;;;;;5084309;28;20035;-79
2022/10/13 07:04:01;;;;;;;34.42;21.67;;;11.30;99.90;;;;;;5100992;28;20027;-79
2022/10/13 07:06:27;;;;;;;35.92;21.90;;;11.80;99.90;;;;;;5079525;28;20059;-78
2022/10/13 07:08:53;;;;;;;33.08;20.58;;;11.80;99.90;;;;;;5063286;28;20107;-79
2022/10/13 07:11:19;;;;;;;33.17;21.48;;;11.90;99.90;;;;;;5067830;28;20080;-78
2022/10/13 07:13:45;;;;;;;34.55;22.20;;;11.40;99.90;;;;;;5086920;28;20039;-78
2022/10/13 07:16:11;;;;;;;30.88;20.83;;;11.50;99.90;;;;;;5078201;28;20035;-78
2022/10/13 07:18:37;;;;;;;33.90;21.35;;;12.00;99.90;;;;;;5069726;28;20066;-79
2022/10/13 07:21:05;;;;;;;33.17;21.30;;;11.90;99.90;;;;;;5098600;28;20035;-78
2022/10/13 07:23:31;;;;;;;30.73;19.38;;;11.90;99.90;;;;;;5067363;28;20028;-78
2022/10/13 07:25:57;;;;;;;28.92;20.05;;;12.00;99.90;;;;;;5099348;28;20032;-79
2022/10/13 07:28:26;;;;;;;29.38;19.92;;;11.90;99.90;;;;;;5084980;28;20063;-76
2022/10/13 07:30:52;;;;;;;29.85;18.02;;;12.10;99.90;;;;;;5084512;28;20032;-79
2022/10/13 07:33:19;;;;;;;27.90;17.60;;;11.60;99.90;;;;;;5067541;28;20058;-79
2022/10/13 07:35:45;;;;;;;34.35;20.63;;;12.20;99.90;;;;;;5100709;28;20051;-79
2022/10/13 07:38:11;;;;;;;34.47;20.30;;;12.20;99.90;;;;;;5084350;28;20066;-79
2022/10/13 07:40:37;;;;;;;28.02;18.55;;;12.00;99.90;;;;;;5084405;28;20114;-79
2022/10/13 07:43:03;;;;;;;29.67;19.98;;;12.40;99.90;;;;;;5083816;28;20035;-78
2022/10/13 07:45:29;;;;;;;34.20;20.90;;;9.80;99.90;;;;;;5065619;28;20036;-77
2022/10/13 07:47:55;;;;;;;33.08;20.83;;;11.80;99.90;;;;;;5067919;28;20114;-79
2022/10/13 07:50:21;;;;;;;43.78;24.35;;;12.50;99.90;;;;;;5087180;28;20077;-78
2022/10/13 07:52:47;;;;;;;33.92;21.02;;;12.30;99.90;;;;;;5069255;28;20036;-78
2022/10/13 07:55:13;;;;;;;35.17;21.20;;;12.40;99.90;;;;;;5066667;28;20056;-80
2022/10/13 07:57:39;;;;;;;26.27;18.33;;;12.50;99.90;;;;;;5067879;28;20031;-78
2022/10/13 08:00:05;;;;;;;30.60;20.15;;;12.40;99.90;;;;;;5084446;28;20027;-78
2022/10/13 08:02:31;;;;;;;27.75;17.77;;;12.00;99.90;;;;;;5074016;28;20052;-78
2022/10/13 08:04:57;;;;;;;27.50;19.00;;;11.90;99.90;;;;;;5092303;28;20107;-79
2022/10/13 08:07:23;;;;;;;29.23;20.05;;;12.00;99.90;;;;;;5062214;28;20035;-80
2022/10/13 08:09:48;;;;;;;35.05;20.73;;;12.20;99.90;;;;;;5090931;28;20024;-79
2022/10/13 08:12:14;;;;;;;31.85;20.55;;;12.30;99.90;;;;;;5064200;28;20048;-79
2022/10/13 08:14:40;;;;;;;38.33;21.08;;;12.00;99.90;;;;;;5087666;28;20035;-80
2022/10/13 08:17:06;;;;;;;35.97;21.70;;;12.10;99.90;;;;;;5086181;28;20108;-80
2022/10/13 08:19:32;;;;;;;33.72;20.80;;;12.60;99.90;;;;;;5083486;28;20303;-79
2022/10/13 08:21:58;;;;;;;30.63;20.30;;;12.20;99.90;;;;;;5063041;28;20222;-79
2022/10/13 08:24:24;;;;;;;32.28;19.92;;;12.70;99.90;;;;;;5077440;28;20073;-78
2022/10/13 08:26:50;;;;;;;41.47;24.55;;;12.80;99.90;;;;;;5072764;28;20044;-80
2022/10/13 08:29:16;;;;;;;30.50;20.33;;;12.90;99.90;;;;;;5095825;28;20111;-78
2022/10/13 08:31:42;;;;;;;36.85;23.08;;;12.80;99.90;;;;;;5047321;28;20045;-80
2022/10/13 08:34:09;;;;;;;38.15;22.27;;;12.80;99.90;;;;;;5083584;28;20047;-80
2022/10/13 08:36:36;;;;;;;36.53;22.15;;;12.30;99.90;;;;;;5081417;28;20040;-79
2022/10/13 08:39:06;;;;;;;37.88;22.88;;;12.30;99.90;;;;;;5099982;28;20043;-81
2022/10/13 08:41:42;;;;;;;36.53;22.70;;;13.00;99.90;;;;;;5067829;28;20036;-81
2022/10/13 08:44:34;;;;;;;33.25;21.80;;;12.80;99.90;;;;;;5083834;28;20066;-81
2022/10/13 08:47:00;;;;;;;32.10;21.38;;;13.00;99.90;;;;;;5083956;28;20099;-80
2022/10/13 08:49:26;;;;;;;36.08;22.65;;;13.20;99.90;;;;;;5101100;28;20311;-79
2022/10/13 08:51:53;;;;;;;36.45;21.30;;;12.60;99.90;;;;;;5084448;28;20036;-80
2022/10/13 08:54:24;;;;;;;39.17;21.80;;;13.30;99.90;;;;;;5067218;28;20032;-81
2022/10/13 08:56:51;;;;;;;31.17;20.10;;;14.70;99.90;;;;;;5101191;28;20430;-82
2022/10/13 08:59:18;;;;;;;37.67;23.42;;;12.70;99.90;;;;;;5086066;28;20019;-81
2022/10/13 09:01:50;;;;;;;36.17;22.65;;;12.80;99.90;;;;;;5087634;28;20031;-81
2022/10/13 09:04:32;;;;;;;32.15;21.85;;;12.80;99.90;;;;;;5104053;28;20040;-79
2022/10/13 09:07:08;;;;;;;38.75;20.65;;;13.50;99.90;;;;;;5087241;28;20024;-81
2022/10/13 09:09:35;;;;;;;37.58;23.05;;;13.00;99.90;;;;;;5087420;28;20059;-81
2022/10/13 09:12:01;;;;;;;35.92;23.00;;;13.40;99.90;;;;;;5087857;28;20337;-81
2022/10/13 09:14:31;;;;;;;36.47;22.20;;;13.20;99.90;;;;;;5071326;28;20040;-80
2022/10/13 09:17:14;;;;;;;35.53;22.15;;;12.80;99.90;;;;;;5071564;28;20198;-81
2022/10/13 09:19:40;;;;;;;38.80;23.38;;;13.60;99.90;;;;;;5087801;28;20184;-81
2022/10/13 09:22:26;;;;;;;42.25;24.25;;;12.90;99.90;;;;;;5087082;28;20056;-80
2022/10/13 09:25:17;;;;;;;39.47;23.58;;;13.10;99.90;;;;;;5087666;28;20036;-80
2022/10/13 09:27:54;;;;;;;36.88;24.00;;;13.40;99.90;;;;;;5104534;28;20036;-81
2022/10/13 09:30:45;;;;;;;37.78;22.70;;;13.00;99.90;;;;;;5087469;28;20036;-81
2022/10/13 09:33:11;;;;;;;40.50;23.48;;;13.40;99.90;;;;;;5100679;28;20040;-81
2022/10/13 09:35:43;;;;;;;38.97;23.52;;;13.00;99.90;;;;;;5085799;28;20067;-81
2022/10/13 09:38:20;;;;;;;30.52;21.65;;;13.60;99.90;;;;;;5104861;28;20093;-81
2022/10/13 09:41:07;;;;;;;32.75;23.15;;;13.70;99.90;;;;;;5087335;28;20040;-81
2022/10/13 09:43:41;;;;;;;39.70;23.83;;;13.80;99.90;;;;;;5083514;28;20030;-81
2022/10/13 09:46:26;;;;;;;39.72;25.05;;;13.50;99.90;;;;;;5086936;28;20110;-81
2022/10/13 09:48:56;;;;;;;43.78;26.17;;;13.50;99.90;;;;;;5087229;28;20028;-80
2022/10/13 09:51:37;;;;;;;45.05;25.10;;;13.90;99.90;;;;;;5086521;28;20028;-81
2022/10/13 09:54:04;;;;;;;44.88;24.85;;;13.30;99.90;;;;;;5085296;28;20098;-80
2022/10/13 09:56:45;;;;;;;35.20;22.75;;;13.90;99.90;;;;;;5086225;28;20047;-81
2022/10/13 09:59:32;;;;;;;39.88;24.42;;;13.50;99.90;;;;;;5086476;28;20313;-80
2022/10/13 10:02:02;;;;;;;39.58;23.50;;;13.50;99.90;;;;;;5080207;28;20032;-80
2022/10/13 10:04:37;;;;;;;46.28;25.08;;;14.00;99.90;;;;;;5086408;28;20102;-80
2022/10/13 10:07:12;;;;;;;39.17;24.40;;;13.50;99.90;;;;;;5086925;28;20299;-81
2022/10/13 10:09:46;;;;;;;36.03;21.92;;;14.10;99.90;;;;;;5081888;28;20286;-81
2022/10/13 10:12:17;;;;;;;34.92;21.25;;;14.20;99.90;;;;;;5076322;28;20064;-81
2022/10/13 10:14:43;;;;;;;39.50;22.92;;;13.70;99.90;;;;;;5085871;28;20102;-79
2022/10/13 10:17:45;;;;;;;41.05;25.13;;;12.40;99.90;;;;;;5052833;28;20028;-80
2022/10/13 10:20:52;;;;;;;34.67;22.48;;;14.30;99.90;;;;;;5102876;28;20036;-80
2022/10/13 10:23:42;;;;;;;32.55;22.20;;;13.80;99.90;;;;;;5047651;28;20121;-79
2022/10/13 10:26:13;;;;;;;36.30;22.58;;;13.90;99.90;;;;;;5084462;28;20107;-77
2022/10/13 10:28:44;;;;;;;36.90;22.02;;;14.40;99.90;;;;;;5102474;28;20093;-78
2022/10/13 10:31:30;;;;;;;34.40;21.90;;;14.50;99.90;;;;;;5101194;28;20233;-81
2022/10/13 10:34:27;;;;;;;32.17;22.27;;;13.70;99.90;;;;;;5091179;28;20032;-81
2022/10/13 10:37:20;;;;;;;34.40;21.85;;;13.60;99.90;;;;;;5073156;28;20062;-79
2022/10/13 10:40:09;;;;;;;32.70;21.25;;;14.30;99.90;;;;;;5116220;27;20043;-79
2022/10/13 10:43:02;;;;;;;30.85;19.88;;;14.30;99.90;;;;;;5084548;28;20032;-80
2022/10/13 10:45:36;;;;;;;35.67;22.05;;;14.10;99.90;;;;;;5075435;28;20064;-79
2022/10/13 10:48:31;;;;;;;30.05;19.60;;;14.40;99.90;;;;;;5093831;28;20032;-80
2022/10/13 10:50:59;;;;;;;33.47;19.67;;;14.00;99.90;;;;;;5083479;28;20033;-80
2022/10/13 10:53:44;;;;;;;34.05;20.40;;;13.90;99.90;;;;;;5065472;28;20039;-81
2022/10/13 10:56:31;;;;;;;26.17;19.90;;;14.50;99.90;;;;;;5084150;28;20089;-80
2022/10/13 10:59:19;;;;;;;31.60;20.70;;;14.40;99.90;;;;;;5065698;28;20043;-79
2022/10/13 11:01:55;;;;;;;31.55;21.05;;;14.30;99.90;;;;;;5091779;28;20085;-80
2022/10/13 11:04:29;;;;;;;28.38;18.95;;;14.60;99.90;;;;;;5079372;28;20396;-80
2022/10/13 11:06:55;;;;;;;26.92;19.23;;;14.70;99.90;;;;;;5082277;28;20028;-80
2022/10/13 11:09:47;;;;;;;27.75;18.13;;;14.40;99.90;;;;;;5067890;28;20031;-80
2022/10/13 11:12:19;;;;;;;24.33;17.33;;;14.70;99.90;;;;;;5053375;28;20032;-80
2022/10/13 11:14:52;;;;;;;29.02;18.52;;;14.60;99.90;;;;;;5103299;28;20226;-80
2022/10/13 11:17:27;;;;;;;25.98;17.95;;;14.60;99.90;;;;;;5079788;28;20036;-80
2022/10/13 11:19:53;;;;;;;24.40;17.38;;;13.30;99.90;;;;;;5083563;28;20037;-80
2022/10/13 11:22:21;;;;;;;27.98;18.48;;;14.60;99.90;;;;;;5068520;28;20039;-82
2022/10/13 11:25:21;;;;;;;24.13;18.05;;;14.00;99.90;;;;;;5099922;28;20037;-79
2022/10/13 11:27:47;;;;;;;25.42;17.83;;;14.50;99.90;;;;;;5085564;28;20071;-78
2022/10/13 11:30:39;;;;;;;23.55;17.65;;;14.60;99.90;;;;;;5080711;28;20191;-79
2022/10/13 11:33:39;;;;;;;23.63;17.40;;;14.30;99.90;;;;;;5091043;28;20378;-80
2022/10/13 11:36:39;;;;;;;22.17;16.23;;;14.20;99.90;;;;;;5084829;28;20071;-80
2022/10/13 11:39:26;;;;;;;21.63;16.60;;;14.80;99.90;;;;;;5078816;28;20032;-79
2022/10/13 11:42:11;;;;;;;28.20;18.58;;;14.30;99.90;;;;;;5096305;28;20078;-80
2022/10/13 11:44:44;;;;;;;26.48;17.00;;;14.90;99.90;;;;;;5078598;28;20044;-80
2022/10/13 11:47:25;;;;;;;25.48;18.23;;;15.00;99.90;;;;;;5085902;28;20028;-65
2022/10/13 11:50:00;;;;;;;23.80;17.42;;;14.50;99.90;;;;;;5103628;28;20111;-64
2022/10/13 11:52:53;;;;;;;23.60;17.13;;;14.70;99.90;;;;;;5101345;28;20066;-65
2022/10/13 11:55:32;;;;;;;24.75;18.73;;;14.50;99.90;;;;;;5099706;28;20055;-64
2022/10/13 11:58:29;;;;;;;28.17;18.50;;;15.00;99.90;;;;;;5092248;28;20024;-65
2022/10/13 12:01:11;;;;;;;22.60;16.42;;;15.00;99.90;;;;;;5095760;28;20099;-64
2022/10/13 12:03:46;;;;;;;23.60;17.50;;;15.10;99.90;;;;;;5098152;28;20156;-65
2022/10/13 12:06:15;;;;;;;23.65;17.20;;;14.50;99.90;;;;;;5080838;28;20103;-65
2022/10/13 12:08:46;;;;;;;21.92;17.30;;;14.50;99.90;;;;;;5103210;28;20043;-64
2022/10/13 12:11:25;;;;;;;22.35;17.25;;;14.40;99.90;;;;;;5096023;28;20050;-64
2022/10/13 12:13:52;;;;;;;24.73;16.98;;;14.40;99.90;;;;;;5095465;28;20040;-65
2022/10/13 12:16:18;;;;;;;21.58;16.08;;;15.00;99.90;;;;;;5094352;28;20047;-66
2022/10/13 12:18:43;;;;;;;26.25;17.52;;;14.90;99.90;;;;;;5098400;28;20561;-64
2022/10/13 12:21:24;;;;;;;26.55;18.02;;;14.90;99.90;;;;;;5079950;28;20036;-65
2022/10/13 12:24:10;;;;;;;23.63;17.60;;;14.90;99.90;;;;;;5082630;28;20039;-64
2022/10/13 12:26:41;;;;;;;24.35;17.60;;;14.60;99.90;;;;;;5091707;28;20349;-65
2022/10/13 12:29:13;;;;;;;28.70;18.60;;;15.10;99.90;;;;;;5068917;28;20362;-64
2022/10/13 12:31:42;;;;;;;27.85;19.33;;;15.00;99.90;;;;;;5097365;28;20036;-64
2022/10/13 12:34:22;;;;;;;22.42;17.42;;;14.80;99.90;;;;;;5099583;28;20070;-64
2022/10/13 12:37:16;;;;;;;25.40;18.15;;;15.30;99.90;;;;;;5101761;28;20359;-64
2022/10/13 12:39:42;;;;;;;25.58;17.70;;;14.70;99.90;;;;;;5098806;28;20046;-64
2022/10/13 12:42:12;;;;;;;25.65;16.92;;;14.80;99.90;;;;;;5096902;28;20033;-64
2022/10/13 12:44:38;;;;;;;21.73;17.17;;;14.80;99.90;;;;;;5087179;28;20035;-64
2022/10/13 12:47:04;;;;;;;24.85;19.05;;;14.80;99.90;;;;;;5101597;28;20040;-64
2022/10/13 12:49:35;;;;;;;24.10;18.27;;;15.50;99.90;;;;;;5102820;28;20035;-64
2022/10/13 12:52:16;;;;;;;25.20;18.25;;;14.70;99.90;;;;;;5100588;28;20063;-64
2022/10/13 12:54:49;;;;;;;22.20;16.83;;;15.10;99.90;;;;;;5100131;28;20109;-77